createdAt,value
2024-01-27T00:00:46.545Z,1.50
2024-01-27T00:05:48.662Z,1.38
2024-01-27T00:10:50.745Z,1.90
2024-01-27T00:15:53.005Z,1.30
2024-01-27T00:20:54.984Z,1.15
2024-01-27T00:25:56.981Z,1.58
2024-01-27T00:30:58.928Z,1.48
2024-01-27T00:36:00.898Z,1.17
2024-01-27T00:41:04.973Z,1.25
2024-01-27T00:46:07.033Z,1.55
2024-01-27T00:51:08.974Z,1.80
2024-01-27T00:56:10.959Z,1.80
2024-01-27T01:01:13.058Z,1.10
2024-01-27T01:06:15.388Z,1.63
2024-01-27T01:11:17.624Z,1.42
2024-01-27T01:16:19.594Z,1.73
2024-01-27T01:21:21.733Z,1.50
2024-01-27T01:26:23.941Z,1.00
2024-01-27T01:31:25.858Z,1.70
2024-01-27T01:36:28.558Z,1.50
2024-01-27T01:41:30.519Z,2.00
2024-01-27T01:46:32.485Z,1.30
2024-01-27T01:51:34.756Z,1.92
2024-01-27T01:56:37.924Z,1.83
2024-01-27T02:01:41.144Z,1.45
2024-01-27T02:06:44.311Z,1.88
2024-01-27T02:11:46.386Z,1.17
2024-01-27T02:16:49.216Z,1.38
2024-01-27T02:21:51.372Z,1.70
2024-01-27T02:26:53.326Z,1.50
2024-01-27T02:31:56.296Z,1.20
2024-01-27T02:36:58.216Z,1.38
2024-01-27T02:42:00.172Z,1.13
2024-01-27T02:47:02.422Z,1.58
2024-01-27T02:52:04.625Z,1.63
2024-01-27T02:57:06.729Z,1.40
2024-01-27T03:02:09.455Z,1.20
2024-01-27T03:07:11.418Z,1.00
2024-01-27T03:12:13.880Z,1.00
2024-01-27T03:17:16.914Z,2.22
2024-01-27T03:22:19.991Z,1.23
2024-01-27T03:27:22.187Z,2.00
2024-01-27T03:32:24.124Z,1.63
2024-01-27T03:37:26.073Z,1.17
2024-01-27T03:42:28.176Z,1.00
2024-01-27T03:47:30.650Z,1.15
2024-01-27T03:52:32.591Z,1.10
2024-01-27T03:57:34.695Z,1.92
2024-01-27T04:02:36.672Z,1.20
2024-01-27T04:07:38.626Z,1.02
2024-01-27T04:12:40.611Z,0.88
2024-01-27T04:17:43.132Z,1.40
2024-01-27T04:22:45.231Z,1.77
2024-01-27T04:27:47.194Z,1.00
2024-01-27T04:32:51.242Z,1.80
2024-01-27T04:37:53.408Z,2.28
2024-01-27T04:42:55.936Z,1.10
2024-01-27T04:47:57.970Z,1.67
2024-01-27T04:52:59.998Z,1.58
2024-01-27T04:58:01.973Z,1.38
2024-01-27T05:03:06.367Z,1.50
2024-01-27T05:08:08.502Z,0.98
2024-01-27T05:13:10.472Z,1.95
2024-01-27T05:18:12.679Z,1.30
2024-01-27T05:23:14.781Z,1.35
2024-01-27T05:28:16.781Z,1.08
2024-01-27T05:33:18.913Z,1.25
2024-01-27T05:38:20.991Z,1.38
2024-01-27T05:43:23.886Z,1.83
2024-01-27T05:48:26.001Z,1.65
2024-01-27T05:53:28.661Z,1.40
2024-01-27T05:58:30.598Z,2.33
2024-01-27T06:03:33.792Z,1.48
2024-01-27T06:08:36.267Z,1.63
2024-01-27T06:13:41.999Z,1.38
2024-01-27T06:18:44.114Z,1.25
2024-01-27T06:23:46.528Z,1.92
2024-01-27T06:28:48.441Z,1.42
2024-01-27T06:33:50.798Z,1.08
2024-01-27T06:38:53.076Z,1.33
2024-01-27T06:43:55.208Z,1.98
2024-01-27T06:48:57.340Z,1.30
2024-01-27T06:53:59.792Z,1.20
2024-01-27T06:59:01.901Z,1.00
2024-01-27T07:04:04.384Z,1.55
2024-01-27T07:09:07.891Z,1.60
2024-01-27T07:14:10.205Z,1.45
2024-01-27T07:19:12.794Z,1.83
2024-01-27T07:24:14.845Z,1.55
2024-01-27T07:29:16.798Z,1.50
2024-01-27T07:34:19.271Z,1.92
2024-01-27T07:39:21.489Z,1.58
2024-01-27T07:44:23.561Z,1.17
2024-01-27T07:49:25.679Z,1.35
2024-01-27T07:54:27.776Z,1.83
2024-01-27T07:59:29.744Z,1.73
2024-01-27T08:04:31.906Z,1.42
2024-01-27T08:09:34.164Z,1.25
2024-01-27T08:14:36.980Z,1.77
2024-01-27T08:19:39.211Z,1.52
2024-01-27T08:24:41.317Z,1.50
2024-01-27T08:29:43.383Z,1.90
2024-01-27T08:34:45.586Z,1.88
2024-01-27T08:39:47.876Z,2.45
2024-01-27T08:44:49.905Z,2.03
2024-01-27T08:49:51.950Z,1.67
2024-01-27T08:54:54.007Z,1.52
2024-01-27T08:59:56.037Z,2.15
2024-01-27T09:04:58.046Z,1.75
2024-01-27T09:10:00.008Z,1.95
2024-01-27T09:15:02.141Z,1.67
2024-01-27T09:20:04.381Z,1.30
2024-01-27T09:25:06.925Z,2.35
2024-01-27T09:30:09.618Z,2.03
2024-01-27T09:35:11.571Z,2.50
2024-01-27T09:40:13.949Z,1.70
2024-01-27T09:45:16.179Z,1.70
2024-01-27T09:50:19.461Z,1.60
2024-01-27T09:55:21.492Z,2.67
2024-01-27T10:00:24.392Z,1.70
2024-01-27T10:05:27.342Z,2.08
2024-01-27T10:10:29.403Z,2.20
2024-01-27T10:15:31.444Z,2.13
2024-01-27T10:20:33.509Z,2.00
2024-01-27T10:25:38.873Z,2.00
2024-01-27T10:30:40.991Z,1.85
2024-01-27T10:35:44.121Z,1.92
2024-01-27T10:40:46.374Z,1.52
2024-01-27T10:45:48.426Z,2.42
2024-01-27T10:50:51.563Z,1.88
2024-01-27T10:55:59.454Z,1.80
2024-01-27T11:01:03.459Z,1.55
2024-01-27T11:06:07.189Z,2.05
2024-01-27T11:11:09.374Z,1.90
2024-01-27T11:16:19.078Z,2.90
2024-01-27T11:21:21.414Z,1.95
2024-01-27T11:26:24.423Z,2.75
2024-01-27T11:31:29.503Z,1.83
2024-01-27T11:36:34.395Z,2.80
2024-01-27T11:41:37.017Z,1.65
2024-01-27T11:46:39.402Z,1.67
2024-01-27T11:51:41.473Z,1.77
2024-01-27T11:56:43.590Z,1.75
2024-01-27T12:01:45.688Z,1.85
2024-01-27T12:06:48.387Z,2.13
2024-01-27T12:11:50.444Z,2.83
2024-01-27T12:16:54.686Z,1.40
2024-01-27T12:21:58.488Z,1.75
2024-01-27T12:27:01.052Z,2.00
2024-01-27T12:32:06.322Z,2.08
2024-01-27T12:37:17.337Z,1.92
2024-01-27T12:42:22.631Z,2.08
2024-01-27T12:47:24.753Z,1.90
2024-01-27T12:52:26.995Z,2.67
2024-01-27T12:57:29.136Z,1.55
2024-01-27T13:02:33.508Z,1.50
2024-01-27T13:07:36.215Z,1.90
2024-01-27T13:12:38.339Z,1.77
2024-01-27T13:17:40.509Z,1.50
2024-01-27T13:22:42.533Z,1.95
2024-01-27T13:27:44.547Z,1.77
2024-01-27T13:32:46.625Z,1.83
2024-01-27T13:37:49.423Z,1.48
2024-01-27T13:42:51.471Z,1.95
2024-01-27T13:47:53.662Z,1.60
2024-01-27T13:52:55.619Z,1.17
2024-01-27T13:57:57.654Z,1.05
2024-01-27T14:02:59.671Z,1.27
2024-01-27T14:08:02.225Z,1.45
2024-01-27T14:13:06.152Z,1.23
2024-01-27T14:18:08.393Z,1.40
2024-01-27T14:23:10.466Z,1.30
2024-01-27T14:28:13.205Z,1.95
2024-01-27T14:33:17.459Z,2.25
2024-01-27T14:38:19.622Z,1.73
2024-01-27T14:43:22.970Z,2.00
2024-01-27T14:48:25.107Z,1.52
2024-01-27T14:53:27.355Z,1.55
2024-01-27T14:58:29.380Z,1.50
2024-01-27T15:03:31.545Z,1.45
2024-01-27T15:08:33.648Z,2.45
2024-01-27T15:13:35.878Z,1.17
2024-01-27T15:18:41.801Z,1.05
2024-01-27T15:23:43.895Z,0.95
2024-01-27T15:28:45.851Z,1.48
2024-01-27T15:33:47.849Z,1.45
2024-01-27T15:38:50.139Z,1.23
2024-01-27T15:43:52.197Z,1.73
2024-01-27T15:48:54.247Z,2.05
2024-01-27T15:53:56.401Z,1.77
2024-01-27T15:58:59.047Z,1.75
2024-01-27T16:04:05.284Z,2.33
2024-01-27T16:09:07.542Z,3.30
2024-01-27T16:14:12.930Z,2.88
2024-01-27T16:19:15.396Z,2.65
2024-01-27T16:24:17.442Z,2.72
2024-01-27T16:29:19.443Z,2.90
2024-01-27T16:34:22.498Z,2.17
2024-01-27T16:39:24.836Z,2.58
2024-01-27T16:44:27.212Z,2.65
2024-01-27T16:49:29.475Z,2.03
2024-01-27T16:54:31.510Z,2.30
2024-01-27T16:59:34.041Z,2.13
2024-01-27T17:04:36.394Z,2.20
2024-01-27T17:09:39.057Z,3.13
2024-01-27T17:14:44.433Z,2.45
2024-01-27T17:19:47.182Z,2.58
2024-01-27T17:24:49.195Z,2.65
2024-01-27T17:29:51.137Z,2.55
2024-01-27T17:34:53.284Z,2.13
2024-01-27T17:39:55.263Z,3.47
2024-01-27T17:44:57.252Z,3.80
2024-01-27T17:49:59.352Z,3.40
2024-01-27T17:55:01.443Z,4.78
2024-01-27T18:00:04.328Z,3.30
2024-01-27T18:05:09.022Z,2.13
2024-01-27T18:10:11.091Z,2.30
2024-01-27T18:15:13.620Z,2.20
2024-01-27T18:20:15.999Z,2.55
2024-01-27T18:25:18.045Z,3.63
2024-01-27T18:30:20.108Z,2.90
2024-01-27T18:35:22.628Z,2.80
2024-01-27T18:40:24.648Z,3.22
2024-01-27T18:45:26.842Z,2.20
2024-01-27T18:50:28.989Z,3.65
2024-01-27T18:55:38.620Z,3.38
2024-01-27T19:00:40.900Z,2.33
2024-01-27T19:05:42.883Z,3.10
2024-01-27T19:10:46.677Z,2.95
2024-01-27T19:15:53.853Z,2.92
2024-01-27T19:20:55.836Z,2.65
2024-01-27T19:25:57.791Z,2.67
2024-01-27T19:31:00.030Z,2.20
2024-01-27T19:36:05.286Z,2.28
2024-01-27T19:41:15.560Z,2.40
2024-01-27T19:46:20.919Z,3.10
2024-01-27T19:51:22.920Z,3.78
2024-01-27T19:56:25.048Z,3.67
2024-01-27T20:01:30.066Z,3.53
2024-01-27T20:06:32.166Z,5.88
2024-01-27T20:11:34.207Z,5.95
2024-01-27T20:16:36.737Z,4.32
2024-01-27T20:21:38.932Z,2.60
2024-01-27T20:26:43.445Z,2.28
2024-01-27T20:31:45.449Z,2.38
2024-01-27T20:36:47.745Z,1.92
2024-01-27T20:41:49.750Z,2.40
2024-01-27T20:46:51.741Z,2.50
2024-01-27T20:51:53.740Z,2.65
2024-01-27T20:56:55.795Z,2.38
2024-01-27T21:02:03.175Z,2.60
2024-01-27T21:07:05.665Z,2.33
2024-01-27T21:12:08.257Z,2.53
2024-01-27T21:17:10.302Z,2.60
2024-01-27T21:22:12.289Z,3.10
2024-01-27T21:27:14.610Z,2.95
2024-01-27T21:32:17.282Z,2.78
2024-01-27T21:37:19.230Z,2.78
2024-01-27T21:42:24.993Z,2.47
2024-01-27T21:47:27.047Z,3.20
2024-01-27T21:52:29.526Z,2.95
2024-01-27T21:57:32.555Z,3.10
2024-01-27T22:02:39.831Z,3.65
2024-01-27T22:07:43.441Z,3.03
2024-01-27T22:17:48.209Z,4.30
2024-01-27T22:22:50.157Z,3.38
2024-01-27T22:27:52.127Z,4.43
2024-01-27T22:32:54.219Z,3.80
2024-01-27T22:37:56.237Z,2.50
2024-01-27T22:42:58.174Z,2.55
2024-01-27T22:48:02.916Z,2.83
2024-01-27T22:53:05.162Z,2.47
2024-01-27T22:58:07.143Z,2.33
2024-01-27T23:03:10.610Z,2.58
2024-01-27T23:08:13.460Z,2.70
2024-01-27T23:13:18.573Z,2.58
2024-01-27T23:18:20.845Z,3.00
2024-01-27T23:23:22.847Z,2.72
2024-01-27T23:28:24.870Z,2.55
2024-01-27T23:33:27.145Z,2.95
2024-01-27T23:38:29.206Z,2.50
2024-01-27T23:43:31.331Z,3.25
2024-01-27T23:48:33.444Z,2.85
2024-01-27T23:53:35.511Z,2.58
2024-01-27T23:58:37.924Z,3.35
